Time;durP1;ratioP1;P1;durP2;ratioP2;P2;SDS_P1;SDS_P2;PMS_P1;PMS_P2;Temp;Humidity;BMP_temperature;BMP_pressure;BME280_temperature;BME280_humidity;BME280_pressure;Samples;Min_cycle;Max_cycle;Signal;HPM_P1;HPM_P2
2022/08/24 00:01:21;;;;;;;0.40;0.40;;;19.10;99.90;;;;;;4440835;32;20069;-65
2022/08/24 00:03:47;;;;;;;0.62;0.62;;;19.00;99.90;;;;;;4445418;32;20095;-65
2022/08/24 00:06:18;;;;;;;0.50;0.50;;;18.90;99.90;;;;;;4426627;32;20069;-65
2022/08/24 00:08:44;;;;;;;0.70;0.65;;;19.00;99.90;;;;;;4444005;32;20068;-65
2022/08/24 00:11:10;;;;;;;0.65;0.65;;;18.90;99.90;;;;;;4448493;32;20509;-65
2022/08/24 00:13:37;;;;;;;0.40;0.40;;;18.90;99.90;;;;;;4443914;32;20109;-65
2022/08/24 00:16:04;;;;;;;0.35;0.35;;;18.90;99.90;;;;;;4441475;32;20500;-65
2022/08/24 00:18:29;;;;;;;0.57;0.57;;;18.90;99.90;;;;;;4447417;32;20085;-65
2022/08/24 00:20:55;;;;;;;0.30;0.30;;;18.80;99.90;;;;;;4448706;32;20066;-65
2022/08/24 00:23:21;;;;;;;0.40;0.40;;;18.80;99.90;;;;;;4449437;32;20069;-65
2022/08/24 00:25:47;;;;;;;0.47;0.47;;;18.80;99.90;;;;;;4449177;32;20068;-66
2022/08/24 00:28:12;;;;;;;6.03;1.40;;;18.70;99.90;;;;;;4447673;32;20069;-65
2022/08/24 00:30:38;;;;;;;0.40;0.40;;;18.70;99.90;;;;;;4441698;32;20077;-66
2022/08/24 00:33:03;;;;;;;20.15;0.70;;;18.70;99.90;;;;;;4444917;32;20064;-66
2022/08/24 00:35:29;;;;;;;0.40;0.40;;;18.70;99.90;;;;;;4438183;32;20547;-66
2022/08/24 00:37:55;;;;;;;0.80;0.73;;;18.70;99.90;;;;;;4434455;32;20078;-66
2022/08/24 00:40:27;;;;;;;0.40;0.40;;;18.70;99.90;;;;;;4447652;32;20097;-66
2022/08/24 00:42:54;;;;;;;1.75;1.45;;;18.80;99.90;;;;;;4436537;32;20080;-66
2022/08/24 00:45:21;;;;;;;0.98;0.70;;;18.80;99.90;;;;;;4442223;32;20473;-66
2022/08/24 00:47:50;;;;;;;0.30;0.30;;;18.60;99.90;;;;;;4444571;32;20464;-65
2022/08/24 00:50:25;;;;;;;0.40;0.40;;;18.60;99.90;;;;;;4431625;32;20077;-64
2022/08/24 00:52:56;;;;;;;0.35;0.35;;;18.60;99.90;;;;;;4439783;32;20143;-64
2022/08/24 00:55:32;;;;;;;0.30;0.30;;;18.60;99.90;;;;;;4440811;32;20064;-64
2022/08/24 00:58:05;;;;;;;0.40;0.40;;;18.50;99.90;;;;;;4446412;32;20564;-65
2022/08/24 01:00:35;;;;;;;0.30;0.30;;;18.60;99.90;;;;;;4445854;32;20081;-64
2022/08/24 01:03:04;;;;;;;0.30;0.30;;;18.70;99.90;;;;;;4444187;32;20085;-65
2022/08/24 01:05:31;;;;;;;0.40;0.40;;;18.60;99.90;;;;;;4433309;32;20068;-64
2022/08/24 01:07:58;;;;;;;0.52;0.52;;;18.60;99.90;;;;;;4438211;32;20658;-66
2022/08/24 01:10:26;;;;;;;0.30;0.30;;;18.50;99.90;;;;;;4444047;32;20057;-64
2022/08/24 01:12:56;;;;;;;0.70;0.70;;;18.50;99.90;;;;;;4441372;32;20727;-64
2022/08/24 01:15:22;;;;;;;1.87;0.95;;;18.40;99.90;;;;;;4445702;32;20475;-64
2022/08/24 01:18:49;;;;;;;0.50;0.50;;;18.40;99.90;;;;;;4441901;32;20056;-64
2022/08/24 01:20:34;;;;;;;0.40;0.40;;;18.40;99.90;;;;;;4441812;32;20132;-64
2022/08/24 01:23:12;;;;;;;0.50;0.50;;;18.30;99.90;;;;;;4445809;32;20072;-65
2022/08/24 01:25:40;;;;;;;0.43;0.43;;;18.30;99.90;;;;;;4443194;32;20530;-66
2022/08/24 01:28:11;;;;;;;4.28;0.65;;;18.30;99.90;;;;;;4444291;32;20089;-64
2022/08/24 01:30:37;;;;;;;0.43;0.43;;;18.20;99.90;;;;;;4445969;32;20052;-66
2022/08/24 01:33:06;;;;;;;0.40;0.40;;;18.30;99.90;;;;;;4449436;32;20096;-66
2022/08/24 01:35:32;;;;;;;0.55;0.55;;;18.40;99.90;;;;;;4437884;32;20146;-65
2022/08/24 01:38:02;;;;;;;0.50;0.50;;;18.40;99.90;;;;;;4433815;32;20073;-66
2022/08/24 01:40:36;;;;;;;1.80;0.50;;;18.30;99.90;;;;;;4440744;32;20080;-66
2022/08/24 01:43:04;;;;;;;0.57;0.50;;;18.30;99.90;;;;;;4431778;32;20077;-66
2022/08/24 01:45:30;;;;;;;0.47;0.47;;;18.20;99.90;;;;;;4447674;32;20650;-66
2022/08/24 01:47:57;;;;;;;2.10;0.73;;;18.10;99.90;;;;;;4445606;32;20094;-65
2022/08/24 01:50:23;;;;;;;0.47;0.47;;;17.90;99.90;;;;;;4447049;32;20084;-65
2022/08/24 01:52:49;;;;;;;5.57;0.82;;;17.90;99.90;;;;;;4450179;32;20089;-65
2022/08/24 01:55:15;;;;;;;0.55;0.55;;;18.00;99.90;;;;;;4445220;32;20057;-65
2022/08/24 01:57:42;;;;;;;0.40;0.40;;;18.10;99.90;;;;;;4446381;32;20097;-65
2022/08/24 02:00:13;;;;;;;0.50;0.50;;;18.20;99.90;;;;;;4444788;32;20061;-66
2022/08/24 02:02:40;;;;;;;4.03;0.80;;;18.10;99.90;;;;;;4440818;32;20065;-65
2022/08/24 02:05:06;;;;;;;0.30;0.30;;;18.00;99.90;;;;;;4444138;32;20073;-65
2022/08/24 02:07:31;;;;;;;0.40;0.40;;;18.00;99.90;;;;;;4432298;32;20101;-65
2022/08/24 02:09:57;;;;;;;0.30;0.30;;;18.00;99.90;;;;;;4445362;32;20520;-66
2022/08/24 02:12:23;;;;;;;0.35;0.35;;;18.00;99.90;;;;;;4431090;32;20057;-66
2022/08/24 02:14:49;;;;;;;5.15;0.50;;;18.10;99.90;;;;;;4442836;32;20389;-66
2022/08/24 02:17:14;;;;;;;0.52;0.52;;;18.10;99.90;;;;;;4446572;32;20139;-65
2022/08/24 02:19:40;;;;;;;0.37;0.37;;;18.10;99.90;;;;;;4445081;32;20052;-66
2022/08/24 02:22:06;;;;;;;0.50;0.50;;;17.90;99.90;;;;;;4445276;32;20120;-65
2022/08/24 02:24:32;;;;;;;0.60;0.60;;;17.90;99.90;;;;;;4445589;32;20070;-66
2022/08/24 02:26:58;;;;;;;1.17;0.52;;;18.00;99.90;;;;;;4441807;32;20088;-65
2022/08/24 02:29:24;;;;;;;1.45;0.50;;;17.90;99.90;;;;;;4444849;32;20089;-65
2022/08/24 02:31:50;;;;;;;0.40;0.40;;;17.80;99.90;;;;;;4450671;32;20089;-66
2022/08/24 02:34:16;;;;;;;1.75;0.40;;;17.80;99.90;;;;;;4450161;32;20077;-66
2022/08/24 02:36:41;;;;;;;0.98;0.55;;;17.90;99.90;;;;;;4427802;32;20116;-65
2022/08/24 02:39:08;;;;;;;0.40;0.40;;;17.90;99.90;;;;;;4451960;32;20135;-65
2022/08/24 02:41:34;;;;;;;4.57;1.17;;;17.90;99.90;;;;;;4444766;32;20069;-66
2022/08/24 02:44:01;;;;;;;2.58;0.55;;;18.00;99.90;;;;;;4453506;32;20570;-66
2022/08/24 02:46:28;;;;;;;0.62;0.62;;;18.00;99.90;;;;;;4443851;32;20499;-66
2022/08/24 02:48:55;;;;;;;6.43;1.58;;;18.10;99.90;;;;;;4445097;32;20084;-65
2022/08/24 02:51:24;;;;;;;0.65;0.65;;;18.20;99.90;;;;;;4448911;32;20123;-66
2022/08/24 02:53:49;;;;;;;1.02;0.93;;;18.40;99.90;;;;;;4444831;32;20093;-65
2022/08/24 02:56:16;;;;;;;0.55;0.55;;;18.50;99.90;;;;;;4451521;32;20119;-65
2022/08/24 02:58:42;;;;;;;0.57;0.52;;;18.50;99.90;;;;;;4452248;32;20125;-66
2022/08/24 03:01:09;;;;;;;21.50;1.15;;;18.60;99.90;;;;;;4450158;32;20064;-66
2022/08/24 03:03:34;;;;;;;1.83;1.37;;;18.60;99.90;;;;;;4452266;32;20164;-66
2022/08/24 03:06:00;;;;;;;3.12;1.75;;;18.70;99.90;;;;;;4436880;32;20105;-66
2022/08/24 03:08:25;;;;;;;3.67;1.17;;;18.80;99.90;;;;;;4446197;32;20661;-65
2022/08/24 03:10:51;;;;;;;10.57;0.90;;;18.80;99.90;;;;;;4444481;32;20442;-66
2022/08/24 03:13:17;;;;;;;2.28;0.80;;;18.80;99.90;;;;;;4448420;32;20078;-65
2022/08/24 03:15:42;;;;;;;0.73;0.70;;;18.80;99.90;;;;;;4450771;32;20097;-66
2022/08/24 03:18:08;;;;;;;0.50;0.50;;;18.90;99.90;;;;;;4447253;32;20073;-66
2022/08/24 03:20:33;;;;;;;2.97;2.03;;;18.90;99.90;;;;;;4447936;32;20134;-65
2022/08/24 03:22:59;;;;;;;2.72;0.98;;;18.80;99.90;;;;;;4450387;32;20778;-66
2022/08/24 03:25:26;;;;;;;2.28;1.20;;;18.80;99.90;;;;;;4447309;32;20092;-66
2022/08/24 03:27:52;;;;;;;1.83;1.00;;;18.80;99.90;;;;;;4448300;32;20093;-66
2022/08/24 03:30:18;;;;;;;2.15;1.70;;;18.80;99.90;;;;;;4447481;32;20084;-66
2022/08/24 03:32:44;;;;;;;4.32;1.05;;;18.80;99.90;;;;;;4438167;32;20061;-66
2022/08/24 03:35:12;;;;;;;1.65;0.88;;;18.70;99.90;;;;;;4428215;32;20534;-66
2022/08/24 03:37:38;;;;;;;3.00;0.95;;;18.70;99.90;;;;;;4425078;32;20113;-66
2022/08/24 03:40:06;;;;;;;1.67;1.00;;;18.70;99.90;;;;;;4446718;32;20077;-66
2022/08/24 03:42:32;;;;;;;0.60;0.60;;;18.60;99.90;;;;;;4448224;32;20113;-66
2022/08/24 03:44:57;;;;;;;0.60;0.60;;;18.70;99.90;;;;;;4436963;32;20081;-66
2022/08/24 03:47:23;;;;;;;1.50;0.95;;;18.60;99.90;;;;;;4446270;32;20084;-65
2022/08/24 03:49:49;;;;;;;1.98;0.90;;;18.60;99.90;;;;;;4447980;32;20084;-66
2022/08/24 03:52:15;;;;;;;2.08;1.20;;;18.60;99.90;;;;;;4434498;32;20074;-66
2022/08/24 03:54:40;;;;;;;5.40;0.70;;;18.60;99.90;;;;;;4445707;32;20092;-66
2022/08/24 03:57:06;;;;;;;1.33;1.23;;;18.50;99.90;;;;;;4447401;32;20421;-66
2022/08/24 03:59:31;;;;;;;3.62;1.25;;;18.50;99.90;;;;;;4445328;32;20085;-66
2022/08/24 04:01:57;;;;;;;0.82;0.82;;;18.50;99.90;;;;;;4446432;32;20108;-66
2022/08/24 04:04:23;;;;;;;10.38;1.08;;;18.50;99.90;;;;;;4447708;32;20095;-66
2022/08/24 04:06:49;;;;;;;3.35;1.67;;;18.50;99.90;;;;;;4431283;32;20064;-65
2022/08/24 04:09:15;;;;;;;1.25;1.10;;;18.50;99.90;;;;;;4446028;32;20122;-66
2022/08/24 04:11:42;;;;;;;6.15;1.55;;;18.30;99.90;;;;;;4428129;32;20081;-65
2022/08/24 04:14:08;;;;;;;4.47;1.40;;;18.30;99.90;;;;;;4436324;32;20065;-65
2022/08/24 04:16:34;;;;;;;3.22;1.48;;;18.30;99.90;;;;;;4431550;32;20114;-65
2022/08/24 04:18:59;;;;;;;17.33;1.40;;;18.30;99.90;;;;;;4444985;32;20595;-65
2022/08/24 04:21:29;;;;;;;17.98;1.33;;;18.30;99.90;;;;;;4441295;32;20085;-65
2022/08/24 04:23:56;;;;;;;1.15;1.05;;;18.30;99.90;;;;;;4408548;32;20085;-65
2022/08/24 04:26:24;;;;;;;1.02;0.77;;;18.30;99.90;;;;;;4414312;32;20323;-65
2022/08/24 04:28:51;;;;;;;1.83;1.25;;;18.30;99.90;;;;;;4409515;32;20068;-65
2022/08/24 04:31:17;;;;;;;4.93;1.40;;;18.30;99.90;;;;;;4436689;32;20093;-65
2022/08/24 04:33:46;;;;;;;0.40;0.40;;;18.20;99.90;;;;;;4433960;32;20104;-65
2022/08/24 04:36:11;;;;;;;1.75;1.50;;;18.20;99.90;;;;;;4420578;32;21264;-65
2022/08/24 04:41:07;;;;;;;5.15;1.02;;;18.10;99.90;;;;;;4446586;32;20085;-66
2022/08/24 04:43:33;;;;;;;3.35;1.23;;;18.10;99.90;;;;;;4448363;32;20094;-66
2022/08/24 04:45:59;;;;;;;6.65;1.15;;;18.20;99.90;;;;;;4447838;32;20115;-66
2022/08/24 04:48:25;;;;;;;1.95;1.15;;;18.30;99.90;;;;;;4447363;32;21794;-66
2022/08/24 04:50:50;;;;;;;5.93;0.95;;;18.40;99.90;;;;;;4429268;32;20438;-66
2022/08/24 04:53:16;;;;;;;1.55;0.77;;;18.40;99.90;;;;;;4411610;32;20137;-66
2022/08/24 04:55:46;;;;;;;0.98;0.88;;;18.40;99.90;;;;;;4445079;32;20076;-65
2022/08/24 04:58:13;;;;;;;1.23;0.80;;;18.40;99.90;;;;;;4449969;32;20534;-66
2022/08/24 05:00:39;;;;;;;1.80;1.15;;;18.40;99.90;;;;;;4422335;32;20197;-66
2022/08/24 05:03:05;;;;;;;4.82;0.93;;;18.40;99.90;;;;;;4422589;32;21067;-66
2022/08/24 05:05:31;;;;;;;1.70;0.85;;;18.40;99.90;;;;;;4408971;32;20263;-66
2022/08/24 05:07:57;;;;;;;3.28;1.58;;;18.40;99.90;;;;;;4392593;32;20073;-66
2022/08/24 05:10:22;;;;;;;0.60;0.60;;;18.40;99.90;;;;;;4405602;32;20052;-66
2022/08/24 05:12:48;;;;;;;1.45;1.00;;;18.50;99.90;;;;;;4426213;32;20369;-66
2022/08/24 05:15:15;;;;;;;7.82;1.27;;;18.50;99.90;;;;;;4430632;32;20562;-66
2022/08/24 05:17:41;;;;;;;0.82;0.73;;;18.50;99.90;;;;;;4402335;32;20242;-66
2022/08/24 05:20:08;;;;;;;7.15;0.98;;;18.50;99.90;;;;;;4330683;32;20217;-66
2022/08/24 05:22:34;;;;;;;1.48;1.08;;;18.50;99.90;;;;;;4364829;32;20565;-66
2022/08/24 05:25:00;;;;;;;0.95;0.88;;;18.60;99.90;;;;;;4343052;32;20589;-66
2022/08/24 05:27:26;;;;;;;0.80;0.80;;;18.60;99.90;;;;;;4420571;32;20623;-66
2022/08/24 05:29:53;;;;;;;4.55;1.87;;;18.50;99.90;;;;;;4362863;32;20138;-65
2022/08/24 05:32:20;;;;;;;2.45;1.65;;;18.40;99.90;;;;;;4343321;32;20557;-65
2022/08/24 05:34:47;;;;;;;1.20;1.10;;;18.40;99.90;;;;;;4368785;32;20491;-65
2022/08/24 05:37:13;;;;;;;2.45;1.37;;;18.40;99.90;;;;;;4398383;32;20092;-66
2022/08/24 05:39:41;;;;;;;2.47;1.05;;;18.50;99.90;;;;;;4400527;32;20175;-66
2022/08/24 05:42:07;;;;;;;2.15;1.20;;;18.40;99.90;;;;;;4426814;32;20416;-65
2022/08/24 05:44:33;;;;;;;1.75;1.25;;;18.50;99.90;;;;;;4427574;32;20081;-65
2022/08/24 05:47:03;;;;;;;9.98;1.83;;;18.50;99.90;;;;;;4427554;32;20840;-66
2022/08/24 05:49:29;;;;;;;4.45;0.93;;;18.50;99.90;;;;;;4403876;32;20351;-65
2022/08/24 05:51:58;;;;;;;3.65;0.98;;;18.50;99.90;;;;;;4415842;32;20242;-66
2022/08/24 05:54:25;;;;;;;5.15;1.20;;;18.50;99.90;;;;;;4404967;32;20121;-66
2022/08/24 05:56:53;;;;;;;9.63;1.45;;;18.50;99.90;;;;;;4415153;32;20645;-66
2022/08/24 05:59:21;;;;;;;1.40;1.00;;;18.60;99.90;;;;;;4399531;32;20153;-65
2022/08/24 06:01:47;;;;;;;3.25;1.00;;;18.50;99.90;;;;;;4389866;32;21157;-66
2022/08/24 06:04:13;;;;;;;0.40;0.40;;;18.50;99.90;;;;;;4395016;32;20194;-65
2022/08/24 06:06:39;;;;;;;0.88;0.77;;;18.50;99.90;;;;;;4411198;32;20099;-66
2022/08/24 06:09:04;;;;;;;3.95;1.15;;;18.50;99.90;;;;;;4406238;32;20535;-65
2022/08/24 06:11:32;;;;;;;2.17;0.90;;;18.50;99.90;;;;;;4419238;32;20139;-66
2022/08/24 06:14:01;;;;;;;0.98;0.90;;;18.50;99.90;;;;;;4422805;32;20117;-66
2022/08/24 06:16:26;;;;;;;1.48;0.90;;;18.60;99.90;;;;;;4411273;32;20109;-66
2022/08/24 06:18:53;;;;;;;1.25;0.70;;;18.60;99.90;;;;;;4408165;32;20443;-66
2022/08/24 06:21:22;;;;;;;0.50;0.50;;;18.70;99.90;;;;;;4412570;32;20141;-66
2022/08/24 06:23:48;;;;;;;1.70;1.10;;;18.70;99.90;;;;;;4411274;32;20100;-66
2022/08/24 06:27:21;;;;;;;0.77;0.73;;;18.80;99.90;;;;;;4413759;32;20092;-66
2022/08/24 06:29:00;;;;;;;1.33;0.70;;;18.80;99.90;;;;;;4404253;32;20108;-65
2022/08/24 06:31:26;;;;;;;2.50;0.90;;;18.90;99.90;;;;;;4402371;32;20077;-66
2022/08/24 06:33:52;;;;;;;0.60;0.60;;;19.00;99.90;;;;;;4401795;32;20065;-67
2022/08/24 06:36:18;;;;;;;0.95;0.55;;;19.10;99.90;;;;;;4412122;32;20508;-67
2022/08/24 06:38:43;;;;;;;0.50;0.50;;;19.10;99.90;;;;;;4411441;32;20135;-66
2022/08/24 06:41:10;;;;;;;1.55;0.65;;;19.00;99.90;;;;;;4415787;32;20109;-66
2022/08/24 06:43:36;;;;;;;1.80;0.77;;;19.00;99.90;;;;;;4413194;32;20085;-66
2022/08/24 06:46:02;;;;;;;1.15;0.68;;;19.10;99.90;;;;;;4410731;32;20088;-66
2022/08/24 06:48:29;;;;;;;0.98;0.60;;;19.20;99.90;;;;;;4408327;32;20093;-66
2022/08/24 06:50:56;;;;;;;0.85;0.55;;;19.30;99.90;;;;;;4413856;32;20580;-66
2022/08/24 06:53:21;;;;;;;1.60;0.90;;;19.30;99.90;;;;;;4408233;32;20073;-66
2022/08/24 06:55:51;;;;;;;0.90;0.73;;;19.30;99.90;;;;;;4411422;32;20081;-66
2022/08/24 06:58:18;;;;;;;1.08;0.73;;;19.40;99.90;;;;;;4411871;32;20089;-66
2022/08/24 07:00:43;;;;;;;3.10;1.12;;;19.30;99.90;;;;;;4402115;32;20085;-64
2022/08/24 07:03:09;;;;;;;6.10;1.00;;;19.40;99.90;;;;;;4410930;32;20647;-67
2022/08/24 07:05:35;;;;;;;9.13;2.05;;;19.50;99.90;;;;;;4416240;32;20741;-66
2022/08/24 07:08:01;;;;;;;1.12;0.77;;;19.40;99.90;;;;;;4418731;32;20673;-66
2022/08/24 07:10:28;;;;;;;0.98;0.88;;;19.60;99.90;;;;;;4419858;32;20402;-66
2022/08/24 07:12:53;;;;;;;1.12;0.68;;;19.60;99.90;;;;;;4413157;32;20077;-66
2022/08/24 07:15:19;;;;;;;1.10;0.95;;;19.70;99.90;;;;;;4412442;32;20492;-66
2022/08/24 07:17:44;;;;;;;1.95;1.02;;;19.80;99.90;;;;;;4416010;32;20368;-66
2022/08/24 07:20:11;;;;;;;3.10;0.98;;;19.80;99.90;;;;;;4406020;32;20088;-66
2022/08/24 07:22:36;;;;;;;2.20;0.50;;;19.90;99.90;;;;;;4423040;32;20915;-66
2022/08/24 07:25:03;;;;;;;1.90;0.98;;;19.90;99.90;;;;;;4415164;32;20105;-66
2022/08/24 07:27:28;;;;;;;2.35;1.33;;;19.90;99.90;;;;;;4417063;32;20165;-66
2022/08/24 07:29:53;;;;;;;3.05;0.60;;;20.00;99.90;;;;;;4396975;32;20580;-67
2022/08/24 07:32:19;;;;;;;2.30;0.77;;;20.00;99.90;;;;;;4398548;32;20093;-67
2022/08/24 07:34:46;;;;;;;1.85;1.00;;;20.00;99.90;;;;;;4393601;32;20576;-66
2022/08/24 07:37:12;;;;;;;1.05;0.95;;;20.00;99.90;;;;;;4410111;32;20591;-67
2022/08/24 07:39:37;;;;;;;2.90;1.20;;;20.20;99.90;;;;;;4423318;32;21984;-66
2022/08/24 07:42:03;;;;;;;2.47;1.08;;;20.30;99.90;;;;;;4421231;32;20098;-66
2022/08/24 07:44:30;;;;;;;0.68;0.68;;;20.30;99.90;;;;;;4429116;32;20489;-65
2022/08/24 07:46:56;;;;;;;0.95;0.82;;;20.40;99.90;;;;;;4421156;32;20096;-65
2022/08/24 07:49:22;;;;;;;1.52;1.35;;;20.40;99.90;;;;;;4397899;32;20695;-65
2022/08/24 07:51:47;;;;;;;4.60;1.20;;;20.50;99.90;;;;;;4411846;32;21558;-65
2022/08/24 07:54:14;;;;;;;0.52;0.52;;;20.50;99.90;;;;;;4411939;32;20104;-65
2022/08/24 07:56:41;;;;;;;1.67;0.75;;;20.60;99.90;;;;;;4422675;32;20076;-65
2022/08/24 07:59:08;;;;;;;3.35;1.77;;;20.70;99.90;;;;;;4402786;32;20108;-65
2022/08/24 08:01:33;;;;;;;0.75;0.70;;;20.80;99.90;;;;;;4413744;32;20084;-65
2022/08/24 08:03:59;;;;;;;0.88;0.82;;;20.90;99.90;;;;;;4416823;32;20109;-65
2022/08/24 08:06:24;;;;;;;0.50;0.50;;;20.90;99.90;;;;;;4423463;32;20064;-65
2022/08/24 08:08:50;;;;;;;1.37;1.15;;;20.90;99.90;;;;;;4427069;32;20399;-65
2022/08/24 08:11:15;;;;;;;1.90;1.10;;;20.90;99.90;;;;;;4418606;32;20688;-66
2022/08/24 08:13:41;;;;;;;1.58;1.10;;;20.80;99.90;;;;;;4406558;32;20375;-65
2022/08/24 08:16:07;;;;;;;0.50;0.50;;;20.90;99.90;;;;;;4415184;32;20084;-65
2022/08/24 08:18:33;;;;;;;14.77;0.95;;;21.00;99.90;;;;;;4390942;32;20084;-65
2022/08/24 08:21:00;;;;;;;0.65;0.65;;;21.10;99.90;;;;;;4415067;32;20216;-65
2022/08/24 08:24:26;;;;;;;1.00;0.68;;;21.20;99.90;;;;;;4415269;32;20993;-65
2022/08/24 08:26:16;;;;;;;1.25;0.90;;;21.20;99.90;;;;;;4418619;32;20112;-66
2022/08/24 08:28:41;;;;;;;2.87;1.33;;;21.30;99.90;;;;;;4403734;32;20089;-66
2022/08/24 08:31:07;;;;;;;12.00;0.70;;;21.30;99.90;;;;;;4402947;32;88504;-65
2022/08/24 08:33:34;;;;;;;1.73;1.23;;;21.40;99.90;;;;;;4407891;32;20390;-65
2022/08/24 08:36:10;;;;;;;1.90;1.25;;;21.50;99.90;;;;;;4415312;32;21095;-65
2022/08/24 08:38:37;;;;;;;1.48;0.85;;;21.60;99.90;;;;;;4410624;32;20104;-66
2022/08/24 08:41:40;;;;;;;3.53;1.15;;;21.80;99.90;;;;;;4411054;32;20105;-66
2022/08/24 08:44:40;;;;;;;3.85;0.70;;;21.90;99.90;;;;;;4417642;32;20089;-66
2022/08/24 08:47:36;;;;;;;0.75;0.75;;;21.90;99.90;;;;;;4412975;32;20848;-66
2022/08/24 08:50:26;;;;;;;8.57;1.02;;;21.90;99.90;;;;;;4402643;32;20163;-65
2022/08/24 08:53:16;;;;;;;0.65;0.65;;;21.90;99.90;;;;;;4413743;32;20084;-66
2022/08/24 08:55:51;;;;;;;13.27;1.42;;;22.30;99.90;;;;;;4420602;32;20568;-65
2022/08/24 08:58:47;;;;;;;2.30;1.00;;;22.70;99.90;;;;;;4406833;32;20553;-66
2022/08/24 09:01:20;;;;;;;3.58;0.88;;;22.90;99.90;;;;;;4420921;32;21589;-66
2022/08/24 09:04:09;;;;;;;0.88;0.55;;;23.00;99.90;;;;;;4411630;32;20084;-66
2022/08/24 09:06:40;;;;;;;1.77;1.02;;;23.00;99.90;;;;;;4424044;32;20196;-66
2022/08/24 09:09:08;;;;;;;0.90;0.90;;;23.00;99.90;;;;;;4427049;32;20093;-66
2022/08/24 09:11:56;;;;;;;1.12;0.85;;;22.90;99.90;;;;;;4426134;32;20080;-66
2022/08/24 09:14:38;;;;;;;2.45;1.10;;;22.80;99.90;;;;;;4418113;32;20111;-65
2022/08/24 09:17:32;;;;;;;0.60;0.60;;;22.90;99.90;;;;;;4426309;32;20084;-65
2022/08/24 09:20:20;;;;;;;0.55;0.50;;;22.90;99.90;;;;;;4411411;32;20093;-65
2022/08/24 09:22:47;;;;;;;0.88;0.88;;;22.80;99.90;;;;;;4403538;32;20789;-66
2022/08/24 09:25:22;;;;;;;0.50;0.50;;;22.80;99.90;;;;;;4401945;32;21837;-67
2022/08/24 09:28:05;;;;;;;0.35;0.35;;;22.70;99.90;;;;;;4395359;32;20380;-65
2022/08/24 09:30:59;;;;;;;0.88;0.80;;;22.70;99.90;;;;;;4410825;32;20088;-64
2022/08/24 09:33:35;;;;;;;1.08;0.60;;;22.60;99.90;;;;;;4408332;32;20374;-64
2022/08/24 09:36:41;;;;;;;0.43;0.43;;;22.60;99.90;;;;;;4400328;32;20612;-65
2022/08/24 09:39:37;;;;;;;3.50;1.33;;;22.70;99.90;;;;;;4396973;32;20941;-66
2022/08/24 09:42:34;;;;;;;0.32;0.32;;;22.80;99.90;;;;;;4399930;32;20089;-66
2022/08/24 09:45:12;;;;;;;4.07;0.82;;;23.00;99.90;;;;;;4404265;32;20108;-66
2022/08/24 09:48:00;;;;;;;0.50;0.50;;;23.20;99.90;;;;;;4425008;32;20420;-66
2022/08/24 09:50:52;;;;;;;1.35;0.57;;;23.40;99.90;;;;;;4413518;32;20591;-66
2022/08/24 09:53:54;;;;;;;1.45;0.77;;;23.80;99.90;;;;;;4410067;32;20137;-66
2022/08/24 09:56:46;;;;;;;0.43;0.43;;;23.90;99.90;;;;;;4415829;32;20186;-66
2022/08/24 09:59:25;;;;;;;0.95;0.52;;;23.90;99.90;;;;;;4410508;32;20101;-66
2022/08/24 10:02:31;;;;;;;0.20;0.20;;;23.90;99.90;;;;;;4404287;32;20163;-66
2022/08/24 10:05:22;;;;;;;2.03;0.93;;;24.10;99.90;;;;;;4396909;32;20080;-66
2022/08/24 10:08:02;;;;;;;0.60;0.60;;;24.10;99.90;;;;;;4419896;32;20622;-66
2022/08/24 10:10:54;;;;;;;0.40;0.40;;;24.10;99.90;;;;;;4412882;32;20098;-66
2022/08/24 10:14:00;;;;;;;0.43;0.43;;;24.50;99.90;;;;;;4416326;32;20658;-65
2022/08/24 10:17:05;;;;;;;0.55;0.55;;;24.50;99.90;;;;;;4397559;32;20164;-65
2022/08/24 10:20:03;;;;;;;0.62;0.50;;;24.30;99.90;;;;;;4390996;32;21107;-64
2022/08/24 10:23:09;;;;;;;1.37;0.50;;;24.10;99.90;;;;;;4407024;32;20498;-64
2022/08/24 10:25:59;;;;;;;1.08;0.70;;;24.00;99.90;;;;;;4396210;32;20447;-65
2022/08/24 10:28:43;;;;;;;;;;;23.90;99.90;;;;;;4399246;32;20272;-65
2022/08/24 10:31:13;;;;;;;1.98;0.45;;;24.00;99.90;;;;;;4421945;32;19989;-65
2022/08/24 10:34:03;;;;;;;0.75;0.60;;;24.20;99.90;;;;;;4403790;32;20073;-66
2022/08/24 10:37:00;;;;;;;0.50;0.50;;;24.40;99.90;;;;;;4419818;32;20116;-65
2022/08/24 10:39:56;;;;;;;2.08;0.93;;;24.30;99.90;;;;;;4405478;32;20567;-65
2022/08/24 10:43:43;;;;;;;0.47;0.47;;;24.40;99.90;;;;;;4414089;32;20208;-66
2022/08/24 10:46:09;;;;;;;1.40;0.95;;;24.80;99.90;;;;;;4416492;32;20077;-65
2022/08/24 10:48:45;;;;;;;3.30;0.75;;;25.40;99.90;;;;;;4408742;32;20097;-66
2022/08/24 10:51:24;;;;;;;0.57;0.37;;;25.40;99.90;;;;;;4407066;32;20315;-66
2022/08/24 10:53:53;;;;;;;0.97;0.77;;;25.30;99.90;;;;;;4403413;32;20432;-66
2022/08/24 10:56:26;;;;;;;1.30;1.20;;;25.20;99.90;;;;;;4405985;32;20639;-65
2022/08/24 10:59:05;;;;;;;1.62;1.05;;;25.30;99.90;;;;;;4401939;32;20077;-66
2022/08/24 11:01:34;;;;;;;0.30;0.30;;;25.70;99.90;;;;;;4410280;32;20210;-65
2022/08/24 11:04:03;;;;;;;0.45;0.40;;;26.00;99.90;;;;;;4398434;32;22310;-66
2022/08/24 11:06:33;;;;;;;1.10;0.87;;;26.50;99.90;;;;;;4413434;32;20268;-66
2022/08/24 11:09:05;;;;;;;0.95;0.62;;;26.50;99.90;;;;;;4405834;32;20158;-66
2022/08/24 11:11:37;;;;;;;2.53;0.50;;;26.60;99.90;;;;;;4417115;32;20073;-65
2022/08/24 11:14:26;;;;;;;2.25;1.15;;;26.90;99.90;;;;;;4417457;32;20085;-65
2022/08/24 11:16:51;;;;;;;1.20;0.52;;;27.20;99.90;;;;;;4417432;32;20445;-66
2022/08/24 11:19:34;;;;;;;0.68;0.68;;;27.20;99.90;;;;;;4408860;32;20084;-65
2022/08/24 11:22:29;;;;;;;0.68;0.55;;;27.50;99.90;;;;;;4418046;32;20332;-66
2022/08/24 11:25:00;;;;;;;1.02;0.60;;;27.60;99.90;;;;;;4414042;32;20577;-66
2022/08/24 11:27:34;;;;;;;0.17;0.17;;;27.60;99.90;;;;;;4407067;32;20198;-66
2022/08/24 11:30:08;;;;;;;0.70;0.70;;;27.60;99.90;;;;;;4408963;32;20921;-65
2022/08/24 11:32:39;;;;;;;2.75;0.95;;;27.40;99.90;;;;;;4403529;32;21876;-65
2022/08/24 11:35:26;;;;;;;2.55;1.08;;;26.70;99.90;;;;;;4413467;32;20513;-65
2022/08/24 11:37:55;;;;;;;0.90;0.55;;;26.20;99.90;;;;;;4403720;32;20405;-65
2022/08/24 11:40:26;;;;;;;0.40;0.40;;;26.30;99.90;;;;;;4408609;32;20456;-65
2022/08/24 11:43:08;;;;;;;1.00;0.55;;;26.80;99.90;;;;;;4393553;32;20092;-66
2022/08/24 11:45:55;;;;;;;1.55;0.62;;;27.40;99.90;;;;;;4406593;32;20077;-66
2022/08/24 11:48:35;;;;;;;2.20;0.57;;;27.00;99.90;;;;;;4399732;32;20112;-66
2022/08/24 11:51:10;;;;;;;2.80;0.85;;;27.40;99.90;;;;;;4408240;32;20125;-66
2022/08/24 11:53:53;;;;;;;0.47;0.47;;;28.10;99.90;;;;;;4397410;32;20088;-66
2022/08/24 11:56:59;;;;;;;1.87;0.37;;;28.20;99.90;;;;;;4426639;32;20086;-66
2022/08/24 11:59:44;;;;;;;1.37;0.55;;;28.60;99.90;;;;;;4397489;32;20129;-67
2022/08/24 12:02:20;;;;;;;1.35;0.50;;;28.70;99.90;;;;;;4423728;32;21068;-68
2022/08/24 12:04:56;;;;;;;0.65;0.25;;;28.90;99.90;;;;;;4414306;32;20060;-67
2022/08/24 12:07:48;;;;;;;3.15;0.40;;;29.10;99.90;;;;;;4417149;32;20112;-68
2022/08/24 12:10:24;;;;;;;0.65;0.52;;;29.40;99.90;;;;;;4395116;32;20825;-67
2022/08/24 12:12:57;;;;;;;12.77;0.90;;;29.80;99.90;;;;;;4411218;32;20076;-67
2022/08/24 12:15:37;;;;;;;0.32;0.32;;;29.70;99.90;;;;;;4410974;32;20385;-67
2022/08/24 12:18:23;;;;;;;;;;;28.90;99.90;;;;;;4410002;32;20293;-67
2022/08/24 12:20:50;;;;;;;1.00;0.77;;;28.90;99.90;;;;;;4408748;32;19956;-68
2022/08/24 12:23:31;;;;;;;1.62;0.95;;;29.50;99.90;;;;;;4425318;32;20471;-68
2022/08/24 12:26:03;;;;;;;0.32;0.32;;;29.60;99.90;;;;;;4426962;32;20088;-67
2022/08/24 12:28:40;;;;;;;0.17;0.17;;;30.00;99.90;;;;;;4405946;32;20081;-68
2022/08/24 12:31:16;;;;;;;0.43;0.43;;;30.70;99.90;;;;;;4404951;32;20135;-68
2022/08/24 12:33:50;;;;;;;1.83;0.68;;;31.10;99.90;;;;;;4382965;32;20097;-68
2022/08/24 12:36:30;;;;;;;1.08;0.70;;;31.20;99.90;;;;;;4400663;32;20092;-68
2022/08/24 12:39:11;;;;;;;0.40;0.40;;;31.30;99.50;;;;;;4401577;32;20080;-68
2022/08/24 12:42:04;;;;;;;0.52;0.40;;;31.20;99.40;;;;;;4387598;32;20065;-68
2022/08/24 12:44:41;;;;;;;0.52;0.50;;;31.20;99.70;;;;;;4411377;32;20113;-69
2022/08/24 12:47:08;;;;;;;0.20;0.20;;;31.60;99.10;;;;;;4410131;32;20465;-69
2022/08/24 12:49:45;;;;;;;0.20;0.20;;;32.10;98.20;;;;;;4398308;32;20388;-67
2022/08/24 12:52:44;;;;;;;3.40;0.57;;;32.60;97.70;;;;;;4406656;32;20433;-68
2022/08/24 12:55:20;;;;;;;2.22;1.58;;;33.40;96.20;;;;;;4400358;32;20859;-68
2022/08/24 12:58:01;;;;;;;0.43;0.40;;;33.10;96.70;;;;;;4414504;32;20534;-67
2022/08/24 13:00:35;;;;;;;0.93;0.50;;;32.60;95.70;;;;;;4391508;32;20469;-68
2022/08/24 13:03:04;;;;;;;0.60;0.60;;;31.90;96.20;;;;;;4400257;32;22425;-67
2022/08/24 13:05:42;;;;;;;1.15;1.05;;;31.90;96.90;;;;;;4411707;32;20636;-67
2022/08/24 13:08:12;;;;;;;0.37;0.37;;;32.30;96.30;;;;;;4411816;32;20139;-67
2022/08/24 13:10:51;;;;;;;0.25;0.25;;;32.50;96.50;;;;;;4413977;32;20124;-68
2022/08/24 13:13:39;;;;;;;0.57;0.40;;;32.70;95.40;;;;;;4403383;32;20799;-67
2022/08/24 13:16:04;;;;;;;0.93;0.70;;;33.50;95.10;;;;;;4410610;32;20528;-68